createdAt,value
2019-03-05T00:04:32.990Z,55.30
2019-03-05T00:07:16.016Z,54.30
2019-03-05T00:10:27.496Z,54.30
2019-03-05T00:13:11.762Z,55.00
2019-03-05T00:16:02.114Z,54.30
2019-03-05T00:18:46.569Z,54.50
2019-03-05T00:21:36.631Z,55.20
2019-03-05T00:24:39.497Z,54.30
2019-03-05T00:31:00.144Z,54.30
2019-03-05T00:34:11.214Z,54.40
2019-03-05T00:36:57.184Z,53.50
2019-03-05T00:40:26.079Z,53.20
2019-03-05T00:43:10.668Z,52.80
2019-03-05T00:46:21.791Z,52.90
2019-03-05T00:49:10.852Z,53.10
2019-03-05T00:52:21.636Z,52.70
2019-03-05T00:55:31.054Z,52.50
2019-03-05T00:58:42.364Z,52.70
2019-03-05T01:01:46.706Z,52.00
2019-03-05T01:05:15.544Z,51.40
2019-03-05T01:08:05.303Z,50.80
2019-03-05T01:10:47.525Z,51.20
2019-03-05T01:13:30.652Z,51.10
2019-03-05T01:19:44.332Z,52.50
2019-03-05T01:22:34.176Z,53.20
2019-03-05T01:25:35.111Z,53.70
2019-03-05T01:28:25.154Z,54.10
2019-03-05T01:31:27.321Z,54.40
2019-03-05T01:37:44.307Z,56.20
2019-03-05T01:43:50.165Z,58.50
2019-03-05T01:46:32.886Z,58.50
2019-03-05T01:49:22.925Z,59.10
2019-03-05T01:52:07.692Z,60.10
2019-03-05T01:54:57.742Z,60.80
2019-03-05T01:57:42.623Z,61.20
2019-03-05T02:00:52.088Z,61.60
2019-03-05T02:03:36.337Z,61.80
2019-03-05T02:06:26.153Z,62.00
2019-03-05T02:09:10.145Z,62.20
2019-03-05T02:12:00.201Z,62.00
2019-03-05T02:14:43.088Z,62.80
2019-03-05T02:17:33.467Z,62.80
2019-03-05T02:20:19.431Z,63.20
2019-03-05T02:23:30.245Z,64.10
2019-03-05T02:29:42.887Z,65.20
2019-03-05T02:32:27.625Z,65.80
2019-03-05T02:35:38.473Z,66.10
2019-03-05T02:38:47.702Z,66.50
2019-03-05T02:41:32.042Z,66.50
2019-03-05T02:45:00.897Z,66.70
2019-03-05T02:48:03.412Z,67.00
2019-03-05T02:51:14.191Z,67.50
2019-03-05T02:53:58.721Z,67.50
2019-03-05T03:00:34.540Z,67.50
2019-03-05T03:03:25.972Z,67.50
2019-03-05T03:06:10.499Z,67.50
2019-03-05T03:09:39.069Z,67.00
2019-03-05T03:12:21.771Z,67.20
2019-03-05T03:15:11.790Z,67.50
2019-03-05T03:17:54.615Z,67.50
2019-03-05T03:20:44.426Z,68.20
2019-03-05T03:23:27.533Z,67.60
2019-03-05T03:26:17.649Z,67.70
2019-03-05T03:29:01.644Z,67.70
2019-03-05T03:31:51.682Z,67.10
2019-03-05T03:34:34.620Z,66.60
2019-03-05T03:40:51.437Z,65.70
2019-03-05T03:43:41.288Z,64.90
2019-03-05T03:46:31.073Z,64.50
2019-03-05T03:49:13.724Z,64.60
2019-03-05T03:51:56.492Z,64.20
2019-03-05T03:54:46.636Z,63.30
2019-03-05T03:57:29.273Z,62.60
2019-03-05T04:00:40.068Z,63.00
2019-03-05T04:03:23.198Z,62.60
2019-03-05T04:06:13.347Z,62.20
2019-03-05T04:08:57.548Z,61.90
2019-03-05T04:11:47.330Z,62.10
2019-03-05T04:14:29.961Z,62.20
2019-03-05T04:17:19.743Z,61.70
2019-03-05T04:20:04.143Z,62.00
2019-03-05T04:22:54.249Z,62.50
2019-03-05T04:25:38.989Z,62.50
2019-03-05T04:28:28.729Z,62.50
2019-03-05T04:31:11.410Z,63.80
2019-03-05T04:34:01.418Z,63.80
2019-03-05T04:36:45.875Z,63.90
2019-03-05T04:39:36.008Z,63.90
2019-03-05T04:42:20.456Z,64.50
2019-03-05T04:55:11.860Z,66.00
2019-03-05T04:57:54.990Z,66.60
2019-03-05T05:00:44.762Z,65.80
2019-03-05T05:03:27.101Z,66.10
2019-03-05T05:06:16.813Z,66.20
2019-03-05T05:08:59.413Z,66.10
2019-03-05T05:12:08.308Z,66.00
2019-03-05T05:14:51.446Z,67.10
2019-03-05T05:17:41.506Z,67.20
2019-03-05T05:20:12.147Z,66.70
2019-03-05T05:22:42.470Z,66.50
2019-03-05T05:25:13.133Z,66.20
2019-03-05T05:27:43.704Z,66.60
2019-03-05T05:30:40.987Z,66.20
2019-03-05T05:33:11.333Z,66.10
2019-03-05T05:35:42.160Z,66.70
2019-03-05T05:38:12.654Z,66.00
2019-03-05T05:40:48.102Z,66.50
2019-03-05T05:43:22.476Z,65.80
2019-03-05T05:45:53.793Z,65.60
2019-03-05T05:48:24.157Z,66.30
2019-03-05T05:50:54.496Z,66.30
2019-03-05T05:53:25.100Z,65.20
2019-03-05T05:55:55.402Z,65.00
2019-03-05T05:58:26.048Z,64.60
2019-03-05T06:00:58.251Z,64.50
2019-03-05T06:03:28.901Z,64.30
2019-03-05T06:05:59.536Z,64.00
2019-03-05T06:08:30.153Z,63.90
2019-03-05T06:11:00.501Z,64.00
2019-03-05T06:13:30.886Z,63.10
2019-03-05T06:16:02.090Z,63.00
2019-03-05T06:18:32.719Z,63.10
2019-03-05T06:21:03.331Z,62.60
2019-03-05T06:23:33.939Z,62.80
2019-03-05T06:26:04.297Z,62.00
2019-03-05T06:28:35.013Z,62.20
2019-03-05T06:31:05.883Z,62.00
2019-03-05T06:33:36.217Z,62.40
2019-03-05T06:36:06.867Z,62.60
2019-03-05T06:38:37.227Z,62.90
2019-03-05T06:41:07.861Z,62.30
2019-03-05T06:43:38.249Z,62.00
2019-03-05T06:46:08.888Z,61.60
2019-03-05T06:48:39.518Z,61.50
2019-03-05T06:51:10.178Z,61.60
2019-03-05T06:53:40.557Z,61.80
2019-03-05T06:56:10.904Z,61.30
2019-03-05T06:58:41.635Z,61.00
2019-03-05T07:01:12.244Z,61.40
2019-03-05T07:03:42.560Z,61.10
2019-03-05T07:06:50.727Z,61.40
2019-03-05T07:09:38.259Z,61.90
2019-03-05T07:12:16.907Z,61.40
2019-03-05T07:15:22.003Z,60.00
2019-03-05T07:18:05.927Z,60.30
2019-03-05T07:20:49.326Z,59.60
2019-03-05T07:23:36.521Z,59.50
2019-03-05T07:26:07.120Z,59.50
2019-03-05T07:28:37.731Z,59.00
2019-03-05T07:31:08.082Z,59.10
2019-03-05T07:33:38.472Z,57.20
2019-03-05T07:36:08.812Z,56.70
2019-03-05T07:38:39.490Z,55.90
2019-03-05T07:41:09.828Z,55.40
2019-03-05T07:43:40.243Z,54.60
2019-03-05T07:46:10.614Z,53.20
2019-03-05T07:48:41.365Z,53.20
2019-03-05T07:51:12.006Z,52.20
2019-03-05T07:53:42.672Z,51.10
2019-03-05T07:56:13.017Z,51.10
2019-03-05T07:58:43.365Z,51.00
2019-03-05T08:01:21.851Z,51.00
2019-03-05T08:03:45.753Z,51.60
2019-03-05T08:06:16.345Z,51.20
2019-03-05T08:09:33.241Z,51.80
2019-03-05T08:12:29.300Z,52.60
2019-03-05T08:15:10.591Z,53.20
2019-03-05T08:17:40.914Z,53.60
2019-03-05T08:20:12.964Z,53.10
2019-03-05T08:22:43.344Z,53.10
2019-03-05T08:25:13.932Z,52.70
2019-03-05T08:27:44.279Z,53.00
2019-03-05T08:30:18.436Z,51.80
2019-03-05T08:32:48.778Z,51.30
2019-03-05T08:35:19.771Z,51.30
2019-03-05T08:37:50.122Z,52.30
2019-03-05T08:40:20.991Z,52.10
2019-03-05T08:42:51.329Z,51.40
2019-03-05T08:45:29.204Z,51.40
2019-03-05T08:47:54.078Z,51.10
2019-03-05T08:50:24.677Z,49.90
2019-03-05T08:52:55.301Z,49.00
2019-03-05T08:55:25.892Z,49.60
2019-03-05T08:57:56.511Z,50.70
2019-03-05T09:00:27.430Z,48.80
2019-03-05T09:02:58.054Z,49.30
2019-03-05T09:05:28.907Z,48.10
2019-03-05T09:07:59.264Z,48.50
2019-03-05T09:10:29.647Z,47.70
2019-03-05T09:12:59.985Z,47.00
2019-03-05T09:15:30.383Z,46.30
2019-03-05T09:18:01.022Z,47.00
2019-03-05T09:20:31.665Z,46.60
2019-03-05T09:23:02.348Z,45.90
2019-03-05T09:25:32.698Z,46.80
2019-03-05T09:28:03.681Z,46.90
2019-03-05T09:30:34.354Z,46.30
2019-03-05T09:33:04.672Z,46.70
2019-03-05T09:35:35.692Z,45.10
2019-03-05T09:38:06.587Z,45.40
2019-03-05T09:40:37.399Z,45.00
2019-03-05T09:43:08.287Z,44.80
2019-03-05T09:45:38.936Z,44.80
2019-03-05T09:48:09.556Z,44.70
2019-03-05T09:50:40.142Z,45.50
2019-03-05T09:53:10.806Z,45.90
2019-03-05T09:55:41.420Z,45.20
2019-03-05T09:58:12.178Z,44.50
2019-03-05T10:00:43.111Z,44.40
2019-03-05T10:03:13.462Z,45.20
2019-03-05T10:05:44.148Z,45.30
2019-03-05T10:08:14.576Z,45.60
2019-03-05T10:10:44.896Z,46.40
2019-03-05T10:13:15.514Z,46.20
2019-03-05T10:15:45.901Z,46.00
2019-03-05T10:18:16.222Z,45.40
2019-03-05T10:20:46.591Z,45.30
2019-03-05T10:23:16.927Z,45.40
2019-03-05T10:25:47.250Z,45.10
2019-03-05T10:28:17.580Z,45.10
2019-03-05T10:30:48.209Z,43.60
2019-03-05T10:33:19.155Z,43.20
2019-03-05T10:35:49.875Z,43.60
2019-03-05T10:38:20.192Z,43.40
2019-03-05T10:40:54.664Z,42.50
2019-03-05T10:43:24.986Z,42.90
2019-03-05T10:45:55.352Z,43.20
2019-03-05T10:48:26.390Z,42.70
2019-03-05T10:50:56.850Z,41.90
2019-03-05T10:53:27.674Z,42.10
2019-03-05T10:55:58.316Z,42.80
2019-03-05T10:58:34.010Z,40.90
2019-03-05T11:01:01.092Z,41.10
2019-03-05T11:03:31.594Z,40.20
2019-03-05T11:06:02.056Z,40.30
2019-03-05T11:08:32.433Z,40.40
2019-03-05T11:11:12.962Z,40.50
2019-03-05T11:13:34.891Z,40.40
2019-03-05T11:16:06.243Z,40.30
2019-03-05T11:18:36.592Z,40.00
2019-03-05T11:21:07.356Z,40.10
2019-03-05T11:23:37.742Z,39.90
2019-03-05T11:26:08.073Z,39.50
2019-03-05T11:28:38.410Z,40.00
2019-03-05T11:31:08.824Z,40.00
2019-03-05T11:33:39.514Z,38.90
2019-03-05T11:36:09.865Z,39.00
2019-03-05T11:38:40.245Z,39.90
2019-03-05T11:41:10.912Z,40.10
2019-03-05T11:43:41.928Z,40.50
2019-03-05T11:46:13.007Z,40.00
2019-03-05T11:48:43.421Z,39.30
2019-03-05T11:51:14.012Z,39.30
2019-03-05T11:54:54.007Z,38.40
2019-03-05T11:57:24.949Z,39.00
2019-03-05T11:59:55.602Z,39.00
2019-03-05T12:02:26.287Z,38.80
2019-03-05T12:04:57.009Z,39.20
2019-03-05T12:07:27.319Z,40.40
2019-03-05T12:09:57.666Z,40.70
2019-03-05T12:12:28.010Z,41.20
2019-03-05T12:14:58.476Z,41.10
2019-03-05T12:17:29.220Z,41.10
2019-03-05T12:19:59.541Z,41.40
2019-03-05T12:22:31.502Z,42.20
2019-03-05T12:25:03.633Z,42.20
2019-03-05T12:27:35.993Z,42.60
2019-03-05T12:30:17.737Z,43.80
2019-03-05T12:32:48.052Z,44.50
2019-03-05T12:35:18.751Z,45.10
2019-03-05T12:37:49.800Z,46.80
2019-03-05T12:40:27.896Z,51.70
2019-03-05T12:42:58.264Z,55.20
2019-03-05T12:45:28.614Z,57.50
2019-03-05T12:47:58.957Z,58.40
2019-03-05T12:50:31.186Z,56.70
2019-03-05T12:53:01.811Z,58.30
2019-03-05T12:55:32.247Z,58.40
2019-03-05T12:58:03.007Z,56.10
2019-03-05T13:00:36.170Z,57.00
2019-03-05T13:03:06.592Z,55.40
2019-03-05T13:05:37.357Z,52.90
2019-03-05T13:08:08.052Z,51.80
2019-03-05T13:10:38.467Z,50.30
2019-03-05T13:13:10.470Z,50.50
2019-03-05T13:15:42.307Z,49.50
2019-03-05T13:18:14.275Z,47.20
2019-03-05T13:20:45.499Z,44.40
2019-03-05T13:23:16.303Z,44.80
2019-03-05T13:25:47.002Z,44.00
2019-03-05T13:28:17.721Z,41.50
2019-03-05T13:30:48.074Z,42.30
2019-03-05T13:37:02.924Z,42.50
2019-03-05T13:39:33.631Z,44.50
2019-03-05T13:42:03.967Z,44.40
2019-03-05T13:44:34.483Z,45.10
2019-03-05T13:47:05.903Z,43.00
2019-03-05T13:50:00.030Z,44.30
2019-03-05T13:52:55.952Z,44.70
2019-03-05T13:55:47.730Z,45.20
2019-03-05T13:58:37.896Z,44.50
2019-03-05T14:01:09.437Z,44.70
2019-03-05T14:03:45.022Z,43.30
2019-03-05T14:06:38.393Z,43.90
2019-03-05T14:09:14.277Z,44.00
2019-03-05T14:11:46.793Z,43.40
2019-03-05T14:14:20.836Z,44.80
2019-03-05T14:17:10.397Z,46.20
2019-03-05T14:19:40.783Z,47.00
2019-03-05T14:22:11.386Z,47.10
2019-03-05T14:24:42.459Z,47.70
2019-03-05T14:27:12.783Z,49.60
2019-03-05T14:29:43.116Z,51.50
2019-03-05T14:32:13.897Z,52.90
2019-03-05T14:34:49.654Z,53.90
2019-03-05T14:37:39.813Z,54.80
2019-03-05T14:40:26.064Z,55.70
2019-03-05T14:42:56.759Z,54.40
2019-03-05T14:45:30.285Z,54.30
2019-03-05T14:48:00.941Z,52.60
2019-03-05T14:50:31.256Z,52.70
2019-03-05T14:53:01.618Z,51.70
2019-03-05T14:55:31.893Z,51.40
2019-03-05T14:58:02.289Z,50.10
2019-03-05T15:00:32.965Z,49.60
2019-03-05T15:03:03.361Z,48.10
2019-03-05T15:05:34.001Z,47.60
2019-03-05T15:08:04.622Z,46.20
2019-03-05T15:10:35.023Z,46.30
2019-03-05T15:13:15.356Z,45.00
2019-03-05T15:15:37.451Z,45.00
2019-03-05T15:18:08.083Z,44.10
2019-03-05T15:20:38.524Z,44.10
2019-03-05T15:23:09.134Z,44.00
2019-03-05T15:25:39.804Z,43.80
2019-03-05T15:28:10.117Z,44.40
2019-03-05T15:30:40.492Z,44.80
2019-03-05T15:33:11.236Z,46.80
2019-03-05T15:35:41.726Z,47.20
2019-03-05T15:38:12.444Z,48.00
2019-03-05T15:40:42.986Z,48.80
2019-03-05T15:43:13.876Z,49.40
2019-03-05T15:45:44.205Z,50.70
2019-03-05T15:48:14.543Z,55.70
2019-03-05T15:50:46.419Z,57.00
2019-03-05T15:53:17.113Z,58.50
2019-03-05T15:55:47.478Z,58.90
2019-03-05T15:58:17.966Z,59.80
2019-03-05T16:00:48.347Z,61.10
2019-03-05T16:03:18.698Z,61.60
2019-03-05T16:05:49.462Z,62.50
2019-03-05T16:08:20.962Z,63.40
2019-03-05T16:10:54.661Z,62.60
2019-03-05T16:13:24.569Z,62.00
2019-03-05T16:16:17.706Z,61.30
2019-03-05T16:18:46.720Z,62.70
2019-03-05T16:21:17.027Z,62.60
2019-03-05T16:23:47.355Z,59.40
2019-03-05T16:26:18.514Z,57.60
2019-03-05T16:28:48.827Z,57.00
2019-03-05T16:31:21.809Z,57.70
2019-03-05T16:34:09.515Z,57.40
2019-03-05T16:36:40.121Z,56.00
2019-03-05T16:39:21.156Z,55.90
2019-03-05T16:41:57.194Z,57.30
2019-03-05T16:44:29.984Z,63.00
2019-03-05T16:47:18.366Z,70.10
2019-03-05T16:49:50.377Z,76.10
2019-03-05T16:52:38.986Z,81.70
2019-03-05T16:55:24.574Z,83.40
2019-03-05T16:58:12.027Z,85.30
2019-03-05T17:01:12.622Z,87.60
2019-03-05T17:03:50.984Z,88.40
2019-03-05T17:06:23.146Z,86.60
2019-03-05T17:08:59.187Z,86.50
2019-03-05T17:11:40.267Z,87.10
2019-03-05T17:14:10.759Z,82.80
2019-03-05T17:16:41.117Z,82.00
2019-03-05T17:19:11.833Z,80.50
2019-03-05T17:21:42.479Z,76.00
2019-03-05T17:24:13.125Z,76.20
2019-03-05T17:26:43.833Z,76.70
2019-03-05T17:29:14.153Z,75.90
2019-03-05T17:31:52.499Z,76.40
2019-03-05T17:34:23.147Z,77.40
2019-03-05T17:36:53.859Z,76.50
2019-03-05T17:39:25.623Z,77.40
2019-03-05T17:41:55.980Z,78.70
2019-03-05T17:44:26.333Z,79.90
2019-03-05T17:46:57.323Z,80.50
2019-03-05T17:49:27.975Z,81.90
2019-03-05T17:51:58.301Z,85.60
2019-03-05T17:54:28.792Z,86.30
2019-03-05T17:56:59.412Z,87.10
2019-03-05T17:59:30.082Z,88.40
2019-03-05T18:02:00.427Z,90.90
2019-03-05T18:04:30.777Z,91.30
2019-03-05T18:07:01.479Z,91.80
2019-03-05T18:09:32.145Z,92.20
2019-03-05T18:12:04.288Z,92.50
2019-03-05T18:14:35.003Z,93.60
2019-03-05T18:17:05.801Z,93.70
2019-03-05T18:19:36.181Z,94.10
2019-03-05T18:22:06.812Z,94.50
2019-03-05T18:24:37.499Z,94.70
2019-03-05T18:27:27.564Z,95.20
2019-03-05T18:29:58.282Z,95.60
2019-03-05T18:32:29.051Z,95.90
2019-03-05T18:34:59.421Z,95.90
2019-03-05T18:37:30.899Z,96.40
2019-03-05T18:40:01.711Z,96.80
2019-03-05T18:42:32.490Z,97.20
2019-03-05T18:45:03.235Z,97.30
2019-03-05T18:47:33.555Z,97.40
2019-03-05T18:50:23.809Z,97.30
2019-03-05T18:52:56.819Z,97.20
2019-03-05T18:55:28.122Z,97.00
2019-03-05T18:57:59.130Z,96.60
2019-03-05T19:00:35.561Z,96.10
2019-03-05T19:03:14.828Z,96.10
2019-03-05T19:05:45.176Z,96.10
2019-03-05T19:08:15.522Z,96.10
2019-03-05T19:10:46.377Z,96.10
2019-03-05T19:13:17.561Z,96.10
2019-03-05T19:15:48.916Z,96.20
2019-03-05T19:18:31.499Z,96.00
2019-03-05T19:21:02.113Z,96.10
2019-03-05T19:23:32.819Z,96.10
2019-03-05T19:26:03.252Z,96.00
2019-03-05T19:28:34.073Z,96.10
2019-03-05T19:31:04.464Z,96.10
2019-03-05T19:33:35.228Z,96.10
2019-03-05T19:36:05.936Z,96.50
2019-03-05T19:38:36.278Z,96.50
2019-03-05T19:41:06.815Z,96.70
2019-03-05T19:43:37.163Z,97.00
2019-03-05T19:46:07.485Z,97.10
2019-03-05T19:48:38.927Z,97.20
2019-03-05T19:51:09.240Z,97.10
2019-03-05T19:53:39.584Z,96.80
2019-03-05T19:56:10.312Z,96.80
2019-03-05T19:58:41.177Z,97.10
2019-03-05T20:01:16.003Z,97.10
2019-03-05T20:03:46.916Z,97.10
2019-03-05T20:06:17.490Z,97.00
2019-03-05T20:08:48.721Z,97.00
2019-03-05T20:11:19.332Z,96.90
2019-03-05T20:13:49.723Z,96.60
2019-03-05T20:16:20.084Z,96.70
2019-03-05T20:18:50.773Z,96.60
2019-03-05T20:21:21.709Z,96.90
2019-03-05T20:23:52.420Z,96.90
2019-03-05T20:26:23.144Z,97.00
2019-03-05T20:28:53.513Z,96.90
2019-03-05T20:31:23.881Z,96.90
2019-03-05T20:33:54.560Z,96.90
2019-03-05T20:36:25.263Z,97.10
2019-03-05T20:38:56.548Z,97.40
2019-03-05T20:41:26.877Z,97.40
2019-03-05T20:43:57.573Z,97.10
2019-03-05T20:46:27.894Z,97.30
2019-03-05T20:48:58.207Z,97.50
2019-03-05T20:51:28.866Z,97.60
2019-03-05T20:54:00.018Z,97.70
2019-03-05T20:56:30.471Z,97.90
2019-03-05T20:59:01.394Z,98.00
2019-03-05T21:01:32.459Z,98.30
2019-03-05T21:04:03.195Z,98.30
2019-03-05T21:06:33.511Z,98.30
2019-03-05T21:09:04.673Z,98.20
2019-03-05T21:11:35.021Z,98.20
2019-03-05T21:14:06.037Z,97.90
2019-03-05T21:16:36.980Z,98.30
2019-03-05T21:19:07.368Z,98.40
2019-03-05T21:21:37.746Z,98.30
2019-03-05T21:24:08.081Z,98.60
2019-03-05T21:26:39.008Z,98.40
2019-03-05T21:29:09.355Z,98.50
2019-03-05T21:31:39.704Z,98.40
2019-03-05T21:34:10.515Z,98.50
2019-03-05T21:36:41.106Z,98.60
2019-03-05T21:39:14.860Z,98.50
2019-03-05T21:41:45.191Z,98.50
2019-03-05T21:44:16.160Z,98.50
2019-03-05T21:46:46.499Z,98.30
2019-03-05T21:49:16.872Z,98.40
2019-03-05T21:51:47.560Z,98.20
2019-03-05T21:54:18.642Z,98.10
2019-03-05T21:56:49.012Z,98.10
2019-03-05T21:59:19.704Z,98.30
2019-03-05T22:01:50.023Z,98.40
2019-03-05T22:04:20.434Z,98.40
2019-03-05T22:06:51.044Z,98.50
2019-03-05T22:09:21.391Z,98.80
2019-03-05T22:12:11.458Z,99.30
2019-03-05T22:14:42.217Z,99.20
2019-03-05T22:17:12.529Z,99.30
2019-03-05T22:19:43.444Z,98.90
2019-03-05T22:22:14.523Z,98.70
2019-03-05T22:24:44.925Z,98.50
2019-03-05T22:27:15.533Z,98.30
2019-03-05T22:29:46.727Z,98.30
2019-03-05T22:32:17.045Z,98.20
2019-03-05T22:34:47.444Z,98.30
2019-03-05T22:37:17.758Z,98.40
2019-03-05T22:39:48.452Z,98.40
2019-03-05T22:42:19.758Z,98.40
2019-03-05T22:44:50.085Z,98.30
2019-03-05T22:47:20.431Z,98.30
2019-03-05T22:49:50.999Z,98.40
2019-03-05T22:52:21.791Z,98.50
2019-03-05T22:54:52.111Z,98.50
2019-03-05T22:57:23.193Z,98.50
2019-03-05T22:59:53.959Z,98.60
2019-03-05T23:02:24.353Z,98.60
2019-03-05T23:04:54.976Z,98.40
2019-03-05T23:07:25.325Z,98.50
2019-03-05T23:09:55.672Z,98.80
2019-03-05T23:12:26.396Z,98.50
2019-03-05T23:14:56.724Z,98.50
2019-03-05T23:17:27.072Z,98.40
2019-03-05T23:19:57.828Z,98.40
2019-03-05T23:22:28.532Z,98.40
2019-03-05T23:24:59.248Z,98.40
2019-03-05T23:27:29.700Z,98.30
2019-03-05T23:30:00.438Z,98.70
2019-03-05T23:32:30.764Z,98.50
2019-03-05T23:35:01.177Z,98.40
2019-03-05T23:37:31.522Z,98.30
2019-03-05T23:40:01.846Z,98.20
2019-03-05T23:42:32.235Z,98.10
2019-03-05T23:45:02.886Z,98.00
2019-03-05T23:47:33.233Z,98.00
2019-03-05T23:50:06.034Z,98.00
2019-03-05T23:52:36.933Z,98.00
2019-03-05T23:55:07.279Z,98.00
2019-03-05T23:57:37.982Z,97.80
